createdAt,value
2022-11-18T00:01:41.411Z,31.30
2022-11-18T00:04:10.012Z,26.30
2022-11-18T00:06:37.773Z,27.40
2022-11-18T00:09:06.272Z,27.30
2022-11-18T00:11:52.726Z,26.30
2022-11-18T00:14:24.280Z,27.50
2022-11-18T00:17:04.789Z,29.50
2022-11-18T00:19:38.541Z,30.00
2022-11-18T00:22:11.513Z,30.40
2022-11-18T00:24:39.829Z,29.90
2022-11-18T00:27:07.819Z,30.90
2022-11-18T00:29:35.545Z,29.60
2022-11-18T00:32:03.505Z,30.20
2022-11-18T00:34:31.440Z,27.30
2022-11-18T00:36:59.424Z,29.10
2022-11-18T00:39:27.436Z,30.20
2022-11-18T00:42:14.123Z,31.10
2022-11-18T00:44:42.082Z,32.90
2022-11-18T00:47:10.010Z,34.90
2022-11-18T00:49:37.743Z,31.10
2022-11-18T00:52:06.734Z,28.80
2022-11-18T00:54:34.731Z,28.80
2022-11-18T00:57:04.601Z,32.60
2022-11-18T00:59:32.466Z,29.20
2022-11-18T01:02:00.178Z,30.20
2022-11-18T01:04:28.309Z,32.60
2022-11-18T01:06:56.217Z,31.30
2022-11-18T01:09:24.453Z,32.00
2022-11-18T01:12:10.802Z,35.50
2022-11-18T01:14:38.578Z,31.00
2022-11-18T01:17:06.593Z,31.20
2022-11-18T01:19:36.362Z,33.60
2022-11-18T01:22:04.765Z,28.80
2022-11-18T01:24:34.268Z,30.60
2022-11-18T01:27:02.760Z,31.50
2022-11-18T01:29:30.741Z,31.20
2022-11-18T01:34:46.691Z,31.10
2022-11-18T01:37:14.738Z,29.80
2022-11-18T01:39:42.487Z,32.50
2022-11-18T01:42:17.631Z,34.40
2022-11-18T01:45:30.454Z,30.80
2022-11-18T01:48:03.193Z,31.00
2022-11-18T01:50:33.297Z,33.80
2022-11-18T01:53:07.995Z,35.40
2022-11-18T01:55:41.488Z,33.00
2022-11-18T01:58:27.969Z,28.90
2022-11-18T02:00:55.834Z,34.30
2022-11-18T02:03:25.676Z,32.00
2022-11-18T02:05:55.193Z,32.00
2022-11-18T02:08:23.701Z,31.70
2022-11-18T02:10:51.619Z,35.00
2022-11-18T02:13:19.964Z,31.80
2022-11-18T02:15:53.569Z,33.00
2022-11-18T02:21:39.451Z,29.80
2022-11-18T02:24:40.265Z,29.90
2022-11-18T02:27:18.326Z,30.60
2022-11-18T02:29:58.930Z,27.40
2022-11-18T02:32:33.832Z,31.10
2022-11-18T02:35:11.259Z,27.30
2022-11-18T02:38:00.659Z,28.00
2022-11-18T02:40:33.705Z,29.60
2022-11-18T02:43:26.670Z,27.70
2022-11-18T02:46:00.475Z,27.20
2022-11-18T02:48:32.931Z,29.50
2022-11-18T02:51:03.988Z,27.70
2022-11-18T02:53:33.807Z,28.90
2022-11-18T02:56:04.349Z,27.00
2022-11-18T02:58:32.061Z,29.20
2022-11-18T03:01:01.963Z,28.50
2022-11-18T03:03:31.990Z,28.20
2022-11-18T03:06:16.772Z,28.80
2022-11-18T03:08:55.686Z,30.30
2022-11-18T03:11:27.186Z,31.60
2022-11-18T03:14:06.058Z,28.30
2022-11-18T03:16:49.431Z,29.90
2022-11-18T03:19:41.401Z,29.40
2022-11-18T03:22:26.106Z,28.40
2022-11-18T03:25:20.229Z,27.70
2022-11-18T03:28:01.044Z,29.40
2022-11-18T03:30:31.474Z,27.40
2022-11-18T03:33:06.794Z,29.00
2022-11-18T03:35:37.751Z,28.40
2022-11-18T03:38:12.167Z,26.00
2022-11-18T03:40:46.748Z,27.50
2022-11-18T03:43:22.575Z,28.60
2022-11-18T03:46:02.118Z,27.00
2022-11-18T03:48:34.694Z,26.40
2022-11-18T03:51:08.784Z,26.20
2022-11-18T03:53:50.991Z,25.60
2022-11-18T03:56:26.250Z,28.60
2022-11-18T03:59:00.647Z,28.80
2022-11-18T04:01:35.876Z,27.30
2022-11-18T04:04:05.188Z,28.70
2022-11-18T04:06:48.452Z,24.80
2022-11-18T04:09:25.961Z,26.30
2022-11-18T04:12:02.832Z,27.50
2022-11-18T04:14:43.440Z,29.00
2022-11-18T04:17:14.904Z,27.80
2022-11-18T04:19:43.393Z,26.30
2022-11-18T04:22:12.185Z,26.40
2022-11-18T04:24:40.971Z,28.80
2022-11-18T04:27:09.493Z,28.50
2022-11-18T04:29:37.231Z,28.10
2022-11-18T04:32:06.213Z,28.30
2022-11-18T04:34:34.151Z,29.00
2022-11-18T04:37:01.905Z,27.40
2022-11-18T04:39:29.647Z,30.00
2022-11-18T04:41:57.494Z,28.60
2022-11-18T04:44:28.725Z,26.70
2022-11-18T04:46:58.487Z,25.80
2022-11-18T04:49:28.162Z,27.70
2022-11-18T04:51:57.056Z,28.20
2022-11-18T04:54:26.937Z,25.40
2022-11-18T04:56:55.818Z,25.60
2022-11-18T04:59:27.204Z,28.30
2022-11-18T05:01:56.578Z,25.40
2022-11-18T05:04:27.847Z,27.40
2022-11-18T05:06:56.257Z,25.90
2022-11-18T05:09:30.270Z,26.20
2022-11-18T05:12:19.920Z,26.00
2022-11-18T05:14:50.535Z,25.70
2022-11-18T05:17:19.643Z,26.50
2022-11-18T05:19:47.659Z,28.20
2022-11-18T05:22:16.000Z,30.80
2022-11-18T05:24:44.029Z,29.60
2022-11-18T05:27:13.086Z,29.10
2022-11-18T05:29:41.035Z,29.90
2022-11-18T05:32:09.639Z,30.10
2022-11-18T05:34:37.535Z,27.50
2022-11-18T05:37:05.479Z,27.30
2022-11-18T05:39:34.225Z,29.10
2022-11-18T05:42:21.364Z,26.70
2022-11-18T05:44:57.731Z,26.90
2022-11-18T05:47:27.421Z,29.80
2022-11-18T05:49:55.512Z,27.90
2022-11-18T05:52:23.291Z,29.60
2022-11-18T05:54:51.655Z,29.40
2022-11-18T05:57:19.405Z,28.80
2022-11-18T05:59:47.156Z,28.40
2022-11-18T06:02:20.525Z,28.10
2022-11-18T06:05:00.050Z,26.20
2022-11-18T06:07:30.296Z,27.30
2022-11-18T06:10:05.588Z,28.50
2022-11-18T06:12:43.017Z,29.40
2022-11-18T06:15:28.570Z,25.80
2022-11-18T06:18:06.583Z,28.60
2022-11-18T06:20:36.691Z,26.40
2022-11-18T06:23:06.038Z,27.50
2022-11-18T06:25:39.221Z,27.90
2022-11-18T06:28:11.463Z,26.10
2022-11-18T06:30:40.372Z,29.90
2022-11-18T06:33:09.304Z,27.70
2022-11-18T06:35:37.068Z,35.90
2022-11-18T06:38:04.906Z,34.60
2022-11-18T06:40:34.943Z,32.80
2022-11-18T06:43:30.218Z,31.50
2022-11-18T06:46:19.178Z,30.50
2022-11-18T06:48:48.022Z,29.00
2022-11-18T06:51:16.821Z,29.50
2022-11-18T06:53:44.562Z,30.30
2022-11-18T06:56:16.717Z,30.60
2022-11-18T06:58:46.599Z,33.20
2022-11-18T07:01:14.665Z,32.40
2022-11-18T07:03:44.891Z,32.60
2022-11-18T07:06:16.270Z,33.20
2022-11-18T07:08:45.126Z,34.60
2022-11-18T07:11:16.748Z,32.90
2022-11-18T07:13:46.060Z,35.50
2022-11-18T07:16:17.609Z,32.60
2022-11-18T07:18:49.596Z,29.50
2022-11-18T07:21:25.857Z,33.20
2022-11-18T07:23:56.376Z,32.10
2022-11-18T07:26:24.867Z,31.30
2022-11-18T07:28:54.450Z,32.90
2022-11-18T07:31:22.546Z,33.20
2022-11-18T07:33:55.243Z,34.50
2022-11-18T07:36:27.786Z,32.60
2022-11-18T07:39:00.117Z,33.90
2022-11-18T07:41:30.094Z,33.70
2022-11-18T07:44:01.110Z,35.20
2022-11-18T07:46:30.638Z,39.30
2022-11-18T07:49:00.971Z,34.30
2022-11-18T07:51:32.776Z,36.30
2022-11-18T07:54:01.749Z,35.50
2022-11-18T07:56:29.530Z,34.60
2022-11-18T07:58:57.325Z,37.10
2022-11-18T08:01:30.923Z,34.20
2022-11-18T08:04:05.382Z,32.40
2022-11-18T08:06:35.196Z,31.40
2022-11-18T08:09:04.656Z,33.60
2022-11-18T08:11:33.137Z,31.60
2022-11-18T08:14:01.438Z,32.30
2022-11-18T08:16:30.093Z,33.30
2022-11-18T08:18:59.828Z,31.20
2022-11-18T08:21:27.651Z,34.30
2022-11-18T08:23:57.585Z,35.60
2022-11-18T08:26:26.974Z,33.50
2022-11-18T08:28:55.288Z,32.90
2022-11-18T08:31:28.454Z,33.30
2022-11-18T08:34:07.078Z,32.10
2022-11-18T08:36:37.617Z,30.70
2022-11-18T08:39:08.700Z,32.80
2022-11-18T08:41:39.206Z,29.20
2022-11-18T08:44:10.321Z,25.50
2022-11-18T08:46:38.386Z,24.50
2022-11-18T08:49:06.478Z,23.70
2022-11-18T08:51:34.480Z,25.70
2022-11-18T08:54:02.496Z,27.20
2022-11-18T08:56:31.397Z,25.50
2022-11-18T08:59:02.110Z,29.00
2022-11-18T09:01:30.038Z,26.80
2022-11-18T09:03:58.259Z,26.70
2022-11-18T09:06:30.602Z,23.20
2022-11-18T09:09:02.082Z,25.10
2022-11-18T09:11:35.588Z,21.00
2022-11-18T09:16:51.693Z,22.50
2022-11-18T09:22:08.692Z,22.10
2022-11-18T09:24:37.555Z,22.60
2022-11-18T09:27:12.144Z,23.90
2022-11-18T09:29:43.897Z,24.10
2022-11-18T09:32:12.372Z,22.70
2022-11-18T09:34:40.129Z,20.90
2022-11-18T09:37:08.318Z,18.50
2022-11-18T09:39:37.459Z,19.20
2022-11-18T09:42:26.973Z,21.10
2022-11-18T09:45:11.835Z,21.30
2022-11-18T09:47:41.487Z,21.50
2022-11-18T09:50:47.177Z,23.50
2022-11-18T09:53:18.766Z,20.60
2022-11-18T09:55:48.171Z,21.40
2022-11-18T09:58:21.758Z,20.60
2022-11-18T10:00:49.711Z,20.20
2022-11-18T10:03:29.115Z,21.90
2022-11-18T10:06:12.519Z,21.30
2022-11-18T10:09:05.902Z,21.00
2022-11-18T10:11:47.592Z,20.20
2022-11-18T10:14:44.699Z,22.00
2022-11-18T10:17:31.513Z,19.70
2022-11-18T10:20:10.496Z,20.70
2022-11-18T10:22:56.182Z,21.60
2022-11-18T10:25:24.433Z,21.90
2022-11-18T10:27:52.895Z,22.90
2022-11-18T10:30:26.266Z,21.70
2022-11-18T10:33:04.540Z,20.90
2022-11-18T10:35:36.246Z,21.50
2022-11-18T10:38:13.149Z,24.10
2022-11-18T10:40:49.831Z,24.20
2022-11-18T10:43:45.635Z,22.90
2022-11-18T10:46:31.190Z,22.60
2022-11-18T10:49:11.161Z,22.20
2022-11-18T10:51:42.667Z,22.20
2022-11-18T10:54:20.031Z,21.90
2022-11-18T10:56:57.742Z,23.60
2022-11-18T10:59:56.899Z,20.50
2022-11-18T11:02:41.487Z,23.30
2022-11-18T11:05:23.613Z,28.10
2022-11-18T11:08:36.242Z,25.20
2022-11-18T11:11:05.395Z,23.00
2022-11-18T11:13:39.032Z,25.00
2022-11-18T11:18:41.778Z,22.60
2022-11-18T11:21:14.346Z,23.00
2022-11-18T11:23:43.808Z,21.60
2022-11-18T11:30:01.256Z,19.60
2022-11-18T11:32:43.702Z,20.00
2022-11-18T11:35:20.359Z,23.40
2022-11-18T11:37:55.805Z,21.60
2022-11-18T11:40:55.919Z,22.10
2022-11-18T11:43:55.599Z,24.00
2022-11-18T11:47:27.294Z,26.90
2022-11-18T11:50:02.168Z,27.70
2022-11-18T11:52:43.506Z,28.20
2022-11-18T11:55:50.010Z,26.60
2022-11-18T11:58:33.208Z,25.10
2022-11-18T12:01:14.380Z,22.90
2022-11-18T12:03:53.508Z,24.00
2022-11-18T12:06:21.973Z,23.20
2022-11-18T12:09:08.006Z,20.50
2022-11-18T12:11:55.886Z,19.00
2022-11-18T12:14:46.715Z,20.80
2022-11-18T12:17:21.767Z,21.50
2022-11-18T12:19:49.728Z,20.70
2022-11-18T12:22:17.493Z,23.60
2022-11-18T12:24:45.227Z,22.60
2022-11-18T12:27:34.795Z,21.30
2022-11-18T12:30:04.506Z,22.80
2022-11-18T12:32:58.048Z,23.40
2022-11-18T12:35:28.737Z,23.30
2022-11-18T12:37:56.444Z,20.00
2022-11-18T12:40:48.869Z,22.50
2022-11-18T12:43:50.847Z,21.30
2022-11-18T12:46:49.597Z,22.60
2022-11-18T12:49:23.732Z,21.00
2022-11-18T12:51:59.752Z,22.80
2022-11-18T12:54:28.044Z,21.30
2022-11-18T12:57:00.296Z,21.50
2022-11-18T12:59:36.883Z,22.50
2022-11-18T13:02:12.023Z,22.70
2022-11-18T13:04:45.827Z,23.80
2022-11-18T13:07:37.735Z,27.90
2022-11-18T13:10:29.609Z,25.30
2022-11-18T13:12:57.749Z,23.60
2022-11-18T13:16:04.859Z,22.60
2022-11-18T13:18:32.650Z,23.20
2022-11-18T13:21:20.783Z,22.70
2022-11-18T13:24:00.397Z,22.20
2022-11-18T13:26:32.570Z,19.50
2022-11-18T13:29:37.752Z,22.90
2022-11-18T13:32:21.064Z,26.80
2022-11-18T13:34:55.163Z,25.00
2022-11-18T13:37:29.510Z,24.30
2022-11-18T13:39:57.936Z,28.90
2022-11-18T13:42:34.673Z,25.70
2022-11-18T13:45:03.801Z,29.90
2022-11-18T13:47:45.372Z,44.40
2022-11-18T13:53:02.041Z,27.10
2022-11-18T13:55:36.860Z,26.90
2022-11-18T13:59:02.500Z,26.50
2022-11-18T14:01:33.826Z,29.30
2022-11-18T14:04:05.367Z,27.20
2022-11-18T14:06:41.361Z,26.20
2022-11-18T14:09:15.596Z,27.70
2022-11-18T14:11:57.561Z,23.70
2022-11-18T14:14:38.125Z,26.60
2022-11-18T14:17:21.859Z,26.50
2022-11-18T14:19:53.471Z,26.30
2022-11-18T14:22:26.395Z,25.60
2022-11-18T14:25:00.865Z,24.70
2022-11-18T14:27:36.747Z,23.90
2022-11-18T14:30:23.459Z,26.30
2022-11-18T14:33:15.017Z,28.30
2022-11-18T14:36:14.549Z,29.90
2022-11-18T14:39:11.233Z,29.90
2022-11-18T14:41:47.379Z,34.60
2022-11-18T14:44:16.413Z,31.60
2022-11-18T14:46:48.892Z,29.80
2022-11-18T14:49:19.365Z,28.30
2022-11-18T14:51:48.576Z,30.40
2022-11-18T14:54:25.433Z,30.80
2022-11-18T14:57:03.101Z,33.40
2022-11-18T14:59:31.022Z,30.00
2022-11-18T15:01:59.838Z,28.90
2022-11-18T15:04:28.294Z,26.80
2022-11-18T15:06:56.689Z,31.60
2022-11-18T15:09:24.778Z,30.80
2022-11-18T15:11:52.551Z,32.10
2022-11-18T15:14:20.648Z,31.70
2022-11-18T15:16:49.015Z,29.70
2022-11-18T15:19:16.841Z,30.70
2022-11-18T15:21:47.040Z,33.00
2022-11-18T15:24:14.879Z,31.60
2022-11-18T15:26:45.968Z,30.50
2022-11-18T15:29:22.411Z,31.40
2022-11-18T15:31:51.593Z,27.40
2022-11-18T15:34:21.634Z,33.30
2022-11-18T15:36:50.242Z,38.60
2022-11-18T15:39:18.015Z,44.30
2022-11-18T15:41:46.506Z,37.60
2022-11-18T15:44:18.161Z,35.20
2022-11-18T15:46:48.321Z,33.00
2022-11-18T15:49:17.731Z,32.00
2022-11-18T15:51:45.982Z,33.40
2022-11-18T15:54:13.735Z,35.30
2022-11-18T15:56:42.179Z,36.50
2022-11-18T15:59:12.355Z,35.00
2022-11-18T16:01:43.293Z,36.80
2022-11-18T16:04:13.838Z,32.80
2022-11-18T16:06:43.692Z,30.70
2022-11-18T16:09:16.492Z,31.90
2022-11-18T16:12:03.632Z,32.50
2022-11-18T16:14:33.429Z,38.80
2022-11-18T16:17:01.205Z,40.70
2022-11-18T16:19:33.746Z,34.70
2022-11-18T16:22:01.888Z,27.00
2022-11-18T16:24:29.769Z,32.50
2022-11-18T16:26:57.577Z,36.80
2022-11-18T16:29:25.635Z,37.70
2022-11-18T16:31:54.964Z,35.90
2022-11-18T16:34:25.476Z,40.10
2022-11-18T16:36:59.969Z,39.90
2022-11-18T16:39:29.563Z,43.70
2022-11-18T16:42:07.501Z,38.00
2022-11-18T16:44:37.852Z,41.30
2022-11-18T16:47:13.906Z,41.30
2022-11-18T16:49:44.335Z,45.10
2022-11-18T16:52:12.706Z,52.00
2022-11-18T16:54:45.154Z,40.90
2022-11-18T16:57:14.448Z,38.30
2022-11-18T16:59:42.336Z,48.10
2022-11-18T17:02:13.221Z,47.10
2022-11-18T17:04:42.286Z,41.50
2022-11-18T17:07:10.171Z,42.50
2022-11-18T17:09:41.955Z,44.80
2022-11-18T17:12:09.714Z,43.20
2022-11-18T17:14:38.811Z,40.00
2022-11-18T17:17:07.929Z,40.10
2022-11-18T17:19:35.949Z,36.00
2022-11-18T17:22:04.180Z,36.70
2022-11-18T17:24:33.139Z,36.80
2022-11-18T17:27:01.325Z,36.80
2022-11-18T17:29:29.134Z,39.20
2022-11-18T17:31:56.852Z,37.60
2022-11-18T17:34:24.578Z,43.20
2022-11-18T17:36:52.576Z,44.60
2022-11-18T17:39:21.115Z,42.40
2022-11-18T17:42:07.731Z,41.00
2022-11-18T17:44:35.499Z,43.90
2022-11-18T17:47:03.366Z,44.60
2022-11-18T17:49:31.179Z,42.30
2022-11-18T17:51:58.980Z,46.10
2022-11-18T17:54:26.822Z,41.90
2022-11-18T17:56:54.685Z,42.10
2022-11-18T17:59:23.342Z,41.50
2022-11-18T18:01:57.311Z,43.40
2022-11-18T18:04:27.705Z,44.60
2022-11-18T18:06:55.616Z,44.00
2022-11-18T18:09:28.838Z,43.70
2022-11-18T18:12:00.412Z,48.80
2022-11-18T18:14:28.644Z,50.40
2022-11-18T18:16:56.477Z,46.10
2022-11-18T18:19:25.400Z,59.30
2022-11-18T18:21:53.815Z,61.40
2022-11-18T18:24:22.477Z,62.70
2022-11-18T18:26:50.959Z,100.00
2022-11-18T18:29:18.910Z,86.50
2022-11-18T18:31:46.664Z,63.00
2022-11-18T18:34:15.387Z,57.50
2022-11-18T18:36:43.684Z,51.30
2022-11-18T18:39:11.411Z,46.80
2022-11-18T18:41:39.194Z,52.90
2022-11-18T18:44:07.532Z,61.10
2022-11-18T18:46:36.967Z,60.60
2022-11-18T18:49:06.299Z,63.50
2022-11-18T18:51:42.491Z,64.10
2022-11-18T18:54:12.817Z,71.50
2022-11-18T18:56:40.756Z,64.50
2022-11-18T18:59:09.968Z,68.50
2022-11-18T19:01:39.444Z,69.20
2022-11-18T19:04:11.592Z,64.90
2022-11-18T19:06:53.248Z,60.10
2022-11-18T19:09:25.324Z,56.30
2022-11-18T19:12:12.977Z,54.40
2022-11-18T19:14:41.721Z,60.70
2022-11-18T19:17:11.619Z,61.00
2022-11-18T19:20:00.274Z,63.20
2022-11-18T19:22:33.341Z,60.20
2022-11-18T19:25:01.962Z,61.90
2022-11-18T19:27:30.762Z,66.80
2022-11-18T19:29:58.637Z,61.50
2022-11-18T19:32:26.456Z,53.90
2022-11-18T19:34:54.264Z,54.30
2022-11-18T19:37:22.061Z,53.70
2022-11-18T19:39:49.900Z,57.00
2022-11-18T19:42:17.686Z,60.30
2022-11-18T19:44:45.531Z,57.70
2022-11-18T19:47:13.277Z,57.90
2022-11-18T19:49:41.110Z,61.70
2022-11-18T19:52:09.610Z,62.30
2022-11-18T19:54:39.153Z,58.10
2022-11-18T19:57:08.384Z,57.90
2022-11-18T19:59:36.436Z,56.10
2022-11-18T20:02:05.265Z,58.40
2022-11-18T20:04:33.231Z,57.30
2022-11-18T20:07:01.087Z,53.10
2022-11-18T20:09:29.405Z,55.50
2022-11-18T20:11:57.249Z,51.10
2022-11-18T20:14:25.567Z,50.80
2022-11-18T20:16:53.366Z,55.30
2022-11-18T20:19:21.455Z,58.20
2022-11-18T20:21:49.649Z,57.20
2022-11-18T20:24:18.997Z,57.20
2022-11-18T20:26:47.852Z,58.90
2022-11-18T20:29:15.875Z,64.20
2022-11-18T20:31:44.112Z,58.70
2022-11-18T20:34:16.698Z,57.20
2022-11-18T20:36:45.067Z,53.50
2022-11-18T20:39:16.753Z,52.00
2022-11-18T20:42:04.384Z,52.50
2022-11-18T20:44:32.226Z,55.90
2022-11-18T20:47:00.481Z,58.10
2022-11-18T20:49:28.713Z,58.50
2022-11-18T20:51:56.942Z,63.60
2022-11-18T20:54:24.720Z,60.50
2022-11-18T20:56:52.510Z,58.10
2022-11-18T20:59:20.532Z,66.10
2022-11-18T21:01:49.503Z,57.50
2022-11-18T21:04:17.636Z,61.60
2022-11-18T21:06:46.080Z,65.00
2022-11-18T21:09:14.662Z,64.40
2022-11-18T21:11:42.429Z,63.50
2022-11-18T21:14:25.742Z,66.70
2022-11-18T21:16:57.755Z,62.10
2022-11-18T21:19:26.708Z,60.10
2022-11-18T21:21:56.094Z,58.50
2022-11-18T21:24:29.027Z,60.30
2022-11-18T21:26:58.369Z,58.00
2022-11-18T21:29:28.721Z,58.20
2022-11-18T21:32:01.691Z,56.10
2022-11-18T21:34:30.591Z,58.10
2022-11-18T21:36:58.408Z,60.80
2022-11-18T21:39:27.571Z,61.30
2022-11-18T21:41:57.120Z,67.30
2022-11-18T21:44:28.689Z,68.80
2022-11-18T21:46:57.946Z,65.60
2022-11-18T21:49:25.707Z,63.80
2022-11-18T21:51:53.756Z,72.90
2022-11-18T21:54:21.530Z,64.00
2022-11-18T21:56:49.514Z,65.90
2022-11-18T21:59:18.253Z,67.30
2022-11-18T22:01:46.578Z,62.30
2022-11-18T22:04:34.388Z,75.60
2022-11-18T22:07:02.265Z,63.50
2022-11-18T22:09:35.882Z,70.80
2022-11-18T22:12:07.112Z,65.30
2022-11-18T22:14:36.722Z,64.90
2022-11-18T22:17:05.241Z,63.80
2022-11-18T22:19:33.101Z,63.50
2022-11-18T22:22:01.384Z,56.50
2022-11-18T22:24:29.152Z,64.00
2022-11-18T22:26:58.089Z,60.70
2022-11-18T22:29:26.439Z,61.80
2022-11-18T22:31:54.841Z,58.20
2022-11-18T22:34:22.576Z,66.10
2022-11-18T22:36:50.360Z,64.60
2022-11-18T22:39:18.392Z,64.30
2022-11-18T22:42:05.505Z,65.70
2022-11-18T22:44:33.315Z,66.90
2022-11-18T22:47:01.079Z,68.10
2022-11-18T22:49:29.083Z,70.20
2022-11-18T22:51:57.092Z,74.20
2022-11-18T22:54:38.866Z,70.20
2022-11-18T22:57:09.122Z,75.10
2022-11-18T22:59:37.114Z,66.10
2022-11-18T23:02:06.104Z,74.30
2022-11-18T23:04:34.325Z,73.10
2022-11-18T23:07:02.742Z,68.20
2022-11-18T23:09:30.981Z,70.80
2022-11-18T23:12:17.531Z,80.40
2022-11-18T23:14:46.247Z,73.80
2022-11-18T23:17:14.668Z,75.90
2022-11-18T23:19:44.212Z,73.90
2022-11-18T23:22:13.730Z,71.70
2022-11-18T23:24:41.631Z,72.20
2022-11-18T23:27:10.093Z,68.20
2022-11-18T23:29:37.913Z,68.80
2022-11-18T23:32:05.747Z,76.90
2022-11-18T23:34:33.907Z,73.10
2022-11-18T23:37:01.695Z,75.40
2022-11-18T23:39:29.754Z,74.10
2022-11-18T23:41:58.053Z,73.90
2022-11-18T23:44:45.354Z,72.20
2022-11-18T23:47:14.495Z,78.70
2022-11-18T23:49:42.259Z,75.20
2022-11-18T23:52:10.184Z,75.70
2022-11-18T23:54:38.076Z,70.60
2022-11-18T23:57:05.933Z,68.50
2022-11-18T23:59:33.856Z,73.90
